createdAt,value
2022-10-15T00:01:52.952Z,12.58
2022-10-15T00:04:48.277Z,12.58
2022-10-15T00:07:17.387Z,12.14
2022-10-15T00:09:45.680Z,12.46
2022-10-15T00:12:15.309Z,12.52
2022-10-15T00:14:43.631Z,12.58
2022-10-15T00:17:11.873Z,12.56
2022-10-15T00:19:40.130Z,12.60
2022-10-15T00:22:08.422Z,12.72
2022-10-15T00:24:38.220Z,12.71
2022-10-15T00:27:06.533Z,12.57
2022-10-15T00:29:36.332Z,12.61
2022-10-15T00:32:04.591Z,12.70
2022-10-15T00:34:32.866Z,12.77
2022-10-15T00:37:01.161Z,12.71
2022-10-15T00:39:29.466Z,12.75
2022-10-15T00:41:57.719Z,12.74
2022-10-15T00:44:51.994Z,12.74
2022-10-15T00:47:26.625Z,12.64
2022-10-15T00:50:01.377Z,12.58
2022-10-15T00:52:42.150Z,12.70
2022-10-15T00:55:16.690Z,12.60
2022-10-15T00:57:46.235Z,12.59
2022-10-15T01:00:17.918Z,12.66
2022-10-15T01:02:47.267Z,12.71
2022-10-15T01:05:18.558Z,12.71
2022-10-15T01:07:46.861Z,12.58
2022-10-15T01:10:19.551Z,12.63
2022-10-15T01:13:09.498Z,12.35
2022-10-15T01:15:47.614Z,12.61
2022-10-15T01:18:22.025Z,12.61
2022-10-15T01:21:05.209Z,12.66
2022-10-15T01:24:19.683Z,12.61
2022-10-15T01:27:22.453Z,12.63
2022-10-15T01:30:26.604Z,12.66
2022-10-15T01:33:19.723Z,12.68
2022-10-15T01:35:51.691Z,11.94
2022-10-15T01:38:36.185Z,12.62
2022-10-15T01:41:11.717Z,12.72
2022-10-15T01:43:46.118Z,12.60
2022-10-15T01:46:42.505Z,12.68
2022-10-15T01:49:17.540Z,12.67
2022-10-15T01:51:46.188Z,12.72
2022-10-15T01:54:19.552Z,12.72
2022-10-15T01:56:50.854Z,12.67
2022-10-15T01:59:25.295Z,12.78
2022-10-15T02:01:57.954Z,12.71
2022-10-15T02:04:52.086Z,12.69
2022-10-15T02:07:34.941Z,12.78
2022-10-15T02:10:13.321Z,12.81
2022-10-15T02:12:52.758Z,12.84
2022-10-15T02:15:27.672Z,12.78
2022-10-15T02:18:03.352Z,12.72
2022-10-15T02:20:37.185Z,12.89
2022-10-15T02:23:12.743Z,12.89
2022-10-15T02:25:43.107Z,12.79
2022-10-15T02:28:14.301Z,12.73
2022-10-15T02:30:45.837Z,12.84
2022-10-15T02:33:17.610Z,12.75
2022-10-15T02:35:48.318Z,12.76
2022-10-15T02:38:22.040Z,12.87
2022-10-15T02:40:51.720Z,12.89
2022-10-15T02:43:22.322Z,12.90
2022-10-15T02:45:52.079Z,12.83
2022-10-15T02:48:23.469Z,12.86
2022-10-15T02:50:51.745Z,12.93
2022-10-15T02:53:20.090Z,12.92
2022-10-15T02:55:48.430Z,12.93
2022-10-15T02:58:16.784Z,12.88
2022-10-15T03:00:45.885Z,12.89
2022-10-15T03:03:14.648Z,12.88
2022-10-15T03:05:45.793Z,12.94
2022-10-15T03:08:14.677Z,12.99
2022-10-15T03:10:42.949Z,12.91
2022-10-15T03:13:11.162Z,12.99
2022-10-15T03:15:46.871Z,12.97
2022-10-15T03:18:16.669Z,13.01
2022-10-15T03:20:47.359Z,12.89
2022-10-15T03:23:16.075Z,13.00
2022-10-15T03:25:46.235Z,12.93
2022-10-15T03:28:23.253Z,13.07
2022-10-15T03:30:51.958Z,12.98
2022-10-15T03:33:23.084Z,13.02
2022-10-15T03:35:55.778Z,12.82
2022-10-15T03:38:24.500Z,12.72
2022-10-15T03:40:54.182Z,12.94
2022-10-15T03:43:42.770Z,13.00
2022-10-15T03:46:11.702Z,13.04
2022-10-15T03:48:44.076Z,13.11
2022-10-15T03:51:18.493Z,13.00
2022-10-15T03:53:54.384Z,13.07
2022-10-15T03:56:22.752Z,12.96
2022-10-15T03:58:51.337Z,13.09
2022-10-15T04:01:21.436Z,13.08
2022-10-15T04:04:01.582Z,13.04
2022-10-15T04:06:34.410Z,13.04
2022-10-15T04:09:07.212Z,12.70
2022-10-15T04:11:35.558Z,13.06
2022-10-15T04:14:06.227Z,13.07
2022-10-15T04:16:35.035Z,13.78
2022-10-15T04:19:12.197Z,13.15
2022-10-15T04:21:43.653Z,13.12
2022-10-15T04:24:25.692Z,13.16
2022-10-15T04:26:54.214Z,13.20
2022-10-15T04:29:22.579Z,13.15
2022-10-15T04:31:51.554Z,13.20
2022-10-15T04:34:20.625Z,13.28
2022-10-15T04:36:51.762Z,13.18
2022-10-15T04:39:22.683Z,13.14
2022-10-15T04:41:50.898Z,13.23
2022-10-15T04:44:24.765Z,13.27
2022-10-15T04:46:57.083Z,13.23
2022-10-15T04:49:57.650Z,13.24
2022-10-15T04:52:50.129Z,13.34
2022-10-15T04:55:19.557Z,13.24
2022-10-15T04:57:48.660Z,13.29
2022-10-15T05:00:23.453Z,13.27
2022-10-15T05:03:23.766Z,13.27
2022-10-15T05:06:04.370Z,13.25
2022-10-15T05:08:36.606Z,13.23
2022-10-15T05:11:16.695Z,13.25
2022-10-15T05:13:45.469Z,13.10
2022-10-15T05:16:16.720Z,13.31
2022-10-15T05:18:47.371Z,13.28
2022-10-15T05:21:17.081Z,13.37
2022-10-15T05:23:50.175Z,13.29
2022-10-15T05:26:40.605Z,13.25
2022-10-15T05:29:10.972Z,13.32
2022-10-15T05:31:40.326Z,13.34
2022-10-15T05:34:15.771Z,13.26
2022-10-15T05:36:58.710Z,13.33
2022-10-15T05:39:28.331Z,13.40
2022-10-15T05:41:56.870Z,13.37
2022-10-15T05:44:35.964Z,13.32
2022-10-15T05:47:04.212Z,13.32
2022-10-15T05:49:34.206Z,13.33
2022-10-15T05:52:09.157Z,13.33
2022-10-15T05:54:57.561Z,13.43
2022-10-15T05:57:25.781Z,13.28
2022-10-15T05:59:53.955Z,13.27
2022-10-15T06:02:22.852Z,13.30
2022-10-15T06:04:57.324Z,13.32
2022-10-15T06:07:25.871Z,13.31
2022-10-15T06:09:54.401Z,13.42
2022-10-15T06:12:26.974Z,13.42
2022-10-15T06:14:55.232Z,13.45
2022-10-15T06:17:23.591Z,13.39
2022-10-15T06:19:52.431Z,13.36
2022-10-15T06:22:20.633Z,13.57
2022-10-15T06:24:48.882Z,13.49
2022-10-15T06:27:17.076Z,13.40
2022-10-15T06:29:46.645Z,13.51
2022-10-15T06:32:14.867Z,13.42
2022-10-15T06:34:44.742Z,13.35
2022-10-15T06:37:12.931Z,13.46
2022-10-15T06:39:41.139Z,13.48
2022-10-15T06:42:09.319Z,13.46
2022-10-15T06:44:40.279Z,13.57
2022-10-15T06:47:10.651Z,13.55
2022-10-15T06:49:38.868Z,13.58
2022-10-15T06:52:07.104Z,13.48
2022-10-15T06:54:35.721Z,13.54
2022-10-15T06:57:05.629Z,13.58
2022-10-15T06:59:35.785Z,13.53
2022-10-15T07:02:05.306Z,13.46
2022-10-15T07:04:34.901Z,13.53
2022-10-15T07:07:03.415Z,13.47
2022-10-15T07:09:32.015Z,13.49
2022-10-15T07:12:00.230Z,13.46
2022-10-15T07:14:29.958Z,13.51
2022-10-15T07:16:58.793Z,13.54
2022-10-15T07:19:28.394Z,13.48
2022-10-15T07:21:58.114Z,13.42
2022-10-15T07:24:26.373Z,13.39
2022-10-15T07:26:54.593Z,13.46
2022-10-15T07:29:22.847Z,13.40
2022-10-15T07:31:51.037Z,13.51
2022-10-15T07:34:20.017Z,13.51
2022-10-15T07:36:48.263Z,13.40
2022-10-15T07:39:19.568Z,13.47
2022-10-15T07:41:47.817Z,13.45
2022-10-15T07:44:16.068Z,13.45
2022-10-15T07:46:44.295Z,13.54
2022-10-15T07:49:12.511Z,13.48
2022-10-15T07:51:40.721Z,13.49
2022-10-15T07:54:08.952Z,14.26
2022-10-15T07:56:38.536Z,13.50
2022-10-15T07:59:06.793Z,13.63
2022-10-15T08:01:35.004Z,12.95
2022-10-15T08:04:07.749Z,13.66
2022-10-15T08:06:41.115Z,13.77
2022-10-15T08:09:09.423Z,13.93
2022-10-15T08:11:39.055Z,13.81
2022-10-15T08:14:11.328Z,13.90
2022-10-15T08:16:39.571Z,13.87
2022-10-15T08:19:07.821Z,14.04
2022-10-15T08:21:36.112Z,14.16
2022-10-15T08:24:04.453Z,14.05
2022-10-15T08:26:35.023Z,14.01
2022-10-15T08:29:05.046Z,13.69
2022-10-15T08:31:33.414Z,14.14
2022-10-15T08:34:01.765Z,14.21
2022-10-15T08:36:30.024Z,14.02
2022-10-15T08:38:58.994Z,13.87
2022-10-15T08:41:33.888Z,14.20
2022-10-15T08:44:04.173Z,14.11
2022-10-15T08:46:38.760Z,13.83
2022-10-15T08:49:08.563Z,14.12
2022-10-15T08:51:43.538Z,14.11
2022-10-15T08:54:18.107Z,14.10
2022-10-15T08:56:50.454Z,14.15
2022-10-15T08:59:31.910Z,14.08
2022-10-15T09:02:05.198Z,14.08
2022-10-15T09:04:47.221Z,14.05
2022-10-15T09:07:27.668Z,14.00
2022-10-15T09:10:06.694Z,14.04
2022-10-15T09:12:49.823Z,14.09
2022-10-15T09:15:25.493Z,14.16
2022-10-15T09:17:57.072Z,14.10
2022-10-15T09:20:34.146Z,14.18
2022-10-15T09:23:02.644Z,13.81
2022-10-15T09:25:38.810Z,14.20
2022-10-15T09:28:12.069Z,14.37
2022-10-15T09:30:49.265Z,14.44
2022-10-15T09:33:34.083Z,14.44
2022-10-15T09:36:18.454Z,14.46
2022-10-15T09:39:03.268Z,14.69
2022-10-15T09:41:44.389Z,14.58
2022-10-15T09:44:17.411Z,14.68
2022-10-15T09:46:52.145Z,14.77
2022-10-15T09:49:25.156Z,14.84
2022-10-15T09:52:05.914Z,15.00
2022-10-15T09:54:43.954Z,14.82
2022-10-15T09:57:14.496Z,14.77
2022-10-15T09:59:55.184Z,14.74
2022-10-15T10:02:27.050Z,14.77
2022-10-15T10:04:56.525Z,14.68
2022-10-15T10:07:33.327Z,14.70
2022-10-15T10:10:05.583Z,14.67
2022-10-15T10:12:36.679Z,14.64
2022-10-15T10:15:09.889Z,14.68
2022-10-15T10:17:39.524Z,14.63
2022-10-15T10:20:19.577Z,14.48
2022-10-15T10:22:52.559Z,14.52
2022-10-15T10:25:36.693Z,14.51
2022-10-15T10:28:18.508Z,14.48
2022-10-15T10:31:03.600Z,13.82
2022-10-15T10:33:37.656Z,14.54
2022-10-15T10:38:41.903Z,14.73
2022-10-15T10:41:12.451Z,14.66
2022-10-15T10:43:42.279Z,14.64
2022-10-15T10:46:20.484Z,14.47
2022-10-15T10:48:52.750Z,14.77
2022-10-15T10:51:24.079Z,14.59
2022-10-15T10:54:02.704Z,14.63
2022-10-15T10:56:38.331Z,14.69
2022-10-15T10:59:16.851Z,14.88
2022-10-15T11:01:46.160Z,14.53
2022-10-15T11:04:26.548Z,14.51
2022-10-15T11:07:03.014Z,14.49
2022-10-15T11:09:45.321Z,14.63
2022-10-15T11:12:38.597Z,14.51
2022-10-15T11:15:28.595Z,14.52
2022-10-15T11:18:14.432Z,14.63
2022-10-15T11:20:59.707Z,14.70
2022-10-15T11:23:55.914Z,14.52
2022-10-15T11:26:52.014Z,14.66
2022-10-15T11:29:52.392Z,14.56
2022-10-15T11:32:48.277Z,14.56
2022-10-15T11:35:57.983Z,14.67
2022-10-15T11:38:35.334Z,14.75
2022-10-15T11:41:22.174Z,14.78
2022-10-15T11:44:12.097Z,14.78
2022-10-15T11:46:47.564Z,14.99
2022-10-15T11:49:30.634Z,15.08
2022-10-15T11:52:17.262Z,14.99
2022-10-15T11:54:54.204Z,15.08
2022-10-15T11:57:23.766Z,15.15
2022-10-15T11:59:58.141Z,15.12
2022-10-15T12:02:34.272Z,15.18
2022-10-15T12:05:08.995Z,15.29
2022-10-15T12:07:42.690Z,15.59
2022-10-15T12:10:40.702Z,15.75
2022-10-15T12:13:15.152Z,15.99
2022-10-15T12:15:52.491Z,16.44
2022-10-15T12:18:29.204Z,16.49
2022-10-15T12:20:58.657Z,16.53
2022-10-15T12:23:40.878Z,16.30
2022-10-15T12:26:32.015Z,15.71
2022-10-15T12:29:05.199Z,16.33
2022-10-15T12:31:51.573Z,16.47
2022-10-15T12:34:41.533Z,16.30
2022-10-15T12:37:18.731Z,16.14
2022-10-15T12:39:52.506Z,16.06
2022-10-15T12:42:27.849Z,15.95
2022-10-15T12:44:57.853Z,15.99
2022-10-15T12:47:50.909Z,16.05
2022-10-15T12:50:21.833Z,16.00
2022-10-15T12:53:01.923Z,16.07
2022-10-15T12:55:33.998Z,16.18
2022-10-15T12:58:07.609Z,16.40
2022-10-15T13:00:40.405Z,16.61
2022-10-15T13:03:28.903Z,16.40
2022-10-15T13:05:57.214Z,16.47
2022-10-15T13:08:38.719Z,16.47
2022-10-15T13:11:20.279Z,15.81
2022-10-15T13:13:52.291Z,16.64
2022-10-15T13:16:21.917Z,17.23
2022-10-15T13:18:53.454Z,16.78
2022-10-15T13:21:21.721Z,16.60
2022-10-15T13:23:51.978Z,16.52
2022-10-15T13:26:25.505Z,16.48
2022-10-15T13:28:58.941Z,16.49
2022-10-15T13:31:31.093Z,16.45
2022-10-15T13:34:07.559Z,16.44
2022-10-15T13:36:37.009Z,16.49
2022-10-15T13:39:08.422Z,16.38
2022-10-15T13:41:40.284Z,16.73
2022-10-15T13:44:23.274Z,16.67
2022-10-15T13:46:52.309Z,16.72
2022-10-15T13:49:22.248Z,16.86
2022-10-15T13:51:54.207Z,16.80
2022-10-15T13:54:26.088Z,16.78
2022-10-15T13:56:57.887Z,16.75
2022-10-15T13:59:31.250Z,16.82
2022-10-15T14:02:02.151Z,16.67
2022-10-15T14:04:32.632Z,16.55
2022-10-15T14:07:04.262Z,16.54
2022-10-15T14:09:35.697Z,16.53
2022-10-15T14:12:07.504Z,16.37
2022-10-15T14:14:39.829Z,16.57
2022-10-15T14:17:10.434Z,16.20
2022-10-15T14:19:40.227Z,16.08
2022-10-15T14:22:08.731Z,16.20
2022-10-15T14:24:39.020Z,16.26
2022-10-15T14:27:09.633Z,16.13
2022-10-15T14:29:42.899Z,16.10
2022-10-15T14:32:24.379Z,16.08
2022-10-15T14:34:54.671Z,16.07
2022-10-15T14:37:41.289Z,15.97
2022-10-15T14:40:18.603Z,15.82
2022-10-15T14:42:49.538Z,15.77
2022-10-15T14:45:26.655Z,15.50
2022-10-15T14:47:58.373Z,15.81
2022-10-15T14:50:33.072Z,15.61
2022-10-15T14:53:08.575Z,15.64
2022-10-15T14:55:40.660Z,15.63
2022-10-15T14:58:11.151Z,15.42
2022-10-15T15:00:44.571Z,15.46
2022-10-15T15:03:19.286Z,15.45
2022-10-15T15:05:49.939Z,15.43
2022-10-15T15:08:18.226Z,15.38
2022-10-15T15:13:22.869Z,15.19
2022-10-15T15:15:52.774Z,15.08
2022-10-15T15:18:21.908Z,15.00
2022-10-15T15:20:52.232Z,15.09
2022-10-15T15:23:24.053Z,15.00
2022-10-15T15:25:52.911Z,15.04
2022-10-15T15:28:24.860Z,15.08
2022-10-15T15:30:59.654Z,15.02
2022-10-15T15:33:29.186Z,15.09
2022-10-15T15:36:03.551Z,15.14
2022-10-15T15:38:32.491Z,15.07
2022-10-15T15:41:04.448Z,15.05
2022-10-15T15:43:33.079Z,15.06
2022-10-15T15:46:02.698Z,15.06
2022-10-15T15:48:31.367Z,15.02
2022-10-15T15:51:04.441Z,15.08
2022-10-15T15:53:33.000Z,14.93
2022-10-15T15:56:03.031Z,14.98
2022-10-15T15:58:34.215Z,14.90
2022-10-15T16:01:03.985Z,14.93
2022-10-15T16:03:32.266Z,14.94
2022-10-15T16:06:00.878Z,14.85
2022-10-15T16:08:29.267Z,14.87
2022-10-15T16:11:01.692Z,14.88
2022-10-15T16:13:30.237Z,14.73
2022-10-15T16:15:58.784Z,14.69
2022-10-15T16:18:28.429Z,14.77
2022-10-15T16:20:56.751Z,14.68
2022-10-15T16:23:25.149Z,14.60
2022-10-15T16:25:54.940Z,14.59
2022-10-15T16:28:23.191Z,14.53
2022-10-15T16:30:51.471Z,14.52
2022-10-15T16:33:19.692Z,14.52
2022-10-15T16:35:54.399Z,14.57
2022-10-15T16:38:22.632Z,14.57
2022-10-15T16:40:50.840Z,14.56
2022-10-15T16:43:19.074Z,14.64
2022-10-15T16:45:56.715Z,14.66
2022-10-15T16:48:26.128Z,14.71
2022-10-15T16:51:02.871Z,14.72
2022-10-15T16:53:31.788Z,14.70
2022-10-15T16:56:04.247Z,14.69
2022-10-15T16:58:33.264Z,14.36
2022-10-15T17:01:01.912Z,14.69
2022-10-15T17:03:30.855Z,14.61
2022-10-15T17:06:02.392Z,14.72
2022-10-15T17:08:37.196Z,14.71
2022-10-15T17:11:11.061Z,14.71
2022-10-15T17:13:39.670Z,14.56
2022-10-15T17:16:16.035Z,14.67
2022-10-15T17:18:45.321Z,14.48
2022-10-15T17:21:18.707Z,14.56
2022-10-15T17:23:47.729Z,14.50
2022-10-15T17:26:18.735Z,14.57
2022-10-15T17:28:48.534Z,14.45
2022-10-15T17:31:19.740Z,14.46
2022-10-15T17:33:49.649Z,14.30
2022-10-15T17:36:21.938Z,14.39
2022-10-15T17:38:50.410Z,14.39
2022-10-15T17:41:21.958Z,14.40
2022-10-15T17:43:51.362Z,14.43
2022-10-15T17:46:21.974Z,14.34
2022-10-15T17:48:51.082Z,14.23
2022-10-15T17:51:23.541Z,14.26
2022-10-15T17:53:57.612Z,14.17
2022-10-15T17:56:28.473Z,14.22
2022-10-15T17:58:58.528Z,14.22
2022-10-15T18:01:58.359Z,14.23
2022-10-15T18:04:29.451Z,14.27
2022-10-15T18:06:59.040Z,14.18
2022-10-15T18:09:28.609Z,14.25
2022-10-15T18:12:01.385Z,14.31
2022-10-15T18:14:32.492Z,14.26
2022-10-15T18:17:00.748Z,14.18
2022-10-15T18:19:29.179Z,14.34
2022-10-15T18:21:59.171Z,14.29
2022-10-15T18:24:27.446Z,14.09
2022-10-15T18:26:55.730Z,14.21
2022-10-15T18:29:25.874Z,14.23
2022-10-15T18:31:58.023Z,14.27
2022-10-15T18:34:28.562Z,14.06
2022-10-15T18:36:58.319Z,14.04
2022-10-15T18:39:26.926Z,14.15
2022-10-15T18:41:55.086Z,14.08
2022-10-15T18:44:23.737Z,14.14
2022-10-15T18:46:52.484Z,14.12
2022-10-15T18:49:22.522Z,14.12
2022-10-15T18:51:52.834Z,14.08
2022-10-15T18:54:23.464Z,14.12
2022-10-15T18:56:53.532Z,14.09
2022-10-15T18:59:22.350Z,13.43
2022-10-15T19:01:53.505Z,14.16
2022-10-15T19:04:23.954Z,14.11
2022-10-15T19:06:54.327Z,14.15
2022-10-15T19:09:26.569Z,14.22
2022-10-15T19:11:56.651Z,14.23
2022-10-15T19:14:28.026Z,14.27
2022-10-15T19:16:57.198Z,14.21
2022-10-15T19:19:26.749Z,14.20
2022-10-15T19:21:58.910Z,14.20
2022-10-15T19:24:28.976Z,14.28
2022-10-15T19:26:57.293Z,14.16
2022-10-15T19:29:25.737Z,14.16
2022-10-15T19:31:55.790Z,14.14
2022-10-15T19:34:24.044Z,14.15
2022-10-15T19:36:52.435Z,14.19
2022-10-15T19:39:25.249Z,14.23
2022-10-15T19:41:54.995Z,14.16
2022-10-15T19:44:25.717Z,14.26
2022-10-15T19:46:55.100Z,14.23
2022-10-15T19:49:23.627Z,14.17
2022-10-15T19:51:52.693Z,13.70
2022-10-15T19:54:21.114Z,14.33
2022-10-15T19:56:49.504Z,14.16
2022-10-15T19:59:19.249Z,14.18
2022-10-15T20:01:47.534Z,14.23
2022-10-15T20:04:15.793Z,14.35
2022-10-15T20:06:44.822Z,14.28
2022-10-15T20:09:13.542Z,14.35
2022-10-15T20:11:42.304Z,14.24
2022-10-15T20:14:10.687Z,14.32
2022-10-15T20:16:40.298Z,14.23
2022-10-15T20:19:08.537Z,14.22
2022-10-15T20:21:36.772Z,14.24
2022-10-15T20:24:05.392Z,14.28
2022-10-15T20:26:33.916Z,14.22
2022-10-15T20:29:02.375Z,14.22
2022-10-15T20:31:33.007Z,14.22
2022-10-15T20:34:04.338Z,14.23
2022-10-15T20:36:32.815Z,14.26
2022-10-15T20:39:01.589Z,13.77
2022-10-15T20:41:30.299Z,14.19
2022-10-15T20:43:59.352Z,14.13
2022-10-15T20:46:31.514Z,14.18
2022-10-15T20:49:08.787Z,14.08
2022-10-15T20:51:39.612Z,14.16
2022-10-15T20:54:08.662Z,14.25
2022-10-15T20:56:36.975Z,14.12
2022-10-15T20:59:05.897Z,13.92
2022-10-15T21:01:35.211Z,14.21
2022-10-15T21:04:06.123Z,14.16
2022-10-15T21:06:34.972Z,14.25
2022-10-15T21:09:03.478Z,14.21
2022-10-15T21:11:31.763Z,14.26
2022-10-15T21:16:53.925Z,14.13
2022-10-15T21:19:23.762Z,14.13
2022-10-15T21:21:51.987Z,14.10
2022-10-15T21:24:20.657Z,14.02
2022-10-15T21:26:48.933Z,14.04
2022-10-15T21:29:17.537Z,14.01
2022-10-15T21:31:47.047Z,14.07
2022-10-15T21:34:15.931Z,14.09
2022-10-15T21:36:45.519Z,14.05
2022-10-15T21:39:14.132Z,14.07
2022-10-15T21:41:42.242Z,13.91
2022-10-15T21:44:10.482Z,13.91
2022-10-15T21:46:41.552Z,13.84
2022-10-15T21:49:09.867Z,13.96
2022-10-15T21:51:38.942Z,13.99
2022-10-15T21:54:09.280Z,13.97
2022-10-15T21:56:38.488Z,13.98
2022-10-15T21:59:06.862Z,13.96
2022-10-15T22:02:01.616Z,13.96
2022-10-15T22:04:30.351Z,13.88
2022-10-15T22:06:59.029Z,14.08
2022-10-15T22:09:28.777Z,14.06
2022-10-15T22:11:57.000Z,13.99
2022-10-15T22:14:25.276Z,14.05
2022-10-15T22:16:53.534Z,14.00
2022-10-15T22:19:21.800Z,13.99
2022-10-15T22:21:50.176Z,14.07
2022-10-15T22:24:21.674Z,14.05
2022-10-15T22:26:53.236Z,13.96
2022-10-15T22:29:25.276Z,14.08
2022-10-15T22:31:55.019Z,14.09
2022-10-15T22:34:24.746Z,14.06
2022-10-15T22:36:53.503Z,14.01
2022-10-15T22:39:21.792Z,14.15
2022-10-15T22:41:51.334Z,14.10
2022-10-15T22:44:21.625Z,14.10
2022-10-15T22:46:50.136Z,14.14
2022-10-15T22:49:20.634Z,14.06
2022-10-15T22:51:50.001Z,13.98
2022-10-15T22:54:19.447Z,14.04
2022-10-15T22:56:47.697Z,14.02
2022-10-15T22:59:17.897Z,14.12
2022-10-15T23:01:46.339Z,13.95
2022-10-15T23:04:16.024Z,13.57
2022-10-15T23:06:44.469Z,14.01
2022-10-15T23:09:17.734Z,13.98
2022-10-15T23:11:46.872Z,13.94
2022-10-15T23:14:18.491Z,13.82
2022-10-15T23:16:49.111Z,13.78
2022-10-15T23:19:20.056Z,13.85
2022-10-15T23:21:50.825Z,13.83
2022-10-15T23:24:22.387Z,13.84
2022-10-15T23:26:51.153Z,13.86
2022-10-15T23:29:23.245Z,13.87
2022-10-15T23:31:52.690Z,13.79
2022-10-15T23:34:23.152Z,13.75
2022-10-15T23:36:52.510Z,13.70
2022-10-15T23:39:23.488Z,13.71
2022-10-15T23:41:52.357Z,13.50
2022-10-15T23:44:25.262Z,13.66
2022-10-15T23:46:53.884Z,13.65
2022-10-15T23:49:22.133Z,13.60
2022-10-15T23:51:50.376Z,13.65
2022-10-15T23:54:20.194Z,13.54
2022-10-15T23:56:49.377Z,13.68
2022-10-15T23:59:18.295Z,13.66
